Time;durP1;ratioP1;P1;durP2;ratioP2;P2;SDS_P1;SDS_P2;PMS_P1;PMS_P2;Temp;Humidity;BMP_temperature;BMP_pressure;BME280_temperature;BME280_humidity;BME280_pressure;Samples;Min_cycle;Max_cycle;Signal;HPM_P1;HPM_P2
2022/09/11 00:01:39;;;;;;;1.33;0.70;;;16.80;99.90;;;;;;5049147;28;20235;-73
2022/09/11 00:04:09;;;;;;;0.70;0.70;;;16.90;99.90;;;;;;5050617;28;20848;-73
2022/09/11 00:06:37;;;;;;;0.90;0.90;;;16.80;99.90;;;;;;5040777;28;20208;-74
2022/09/11 00:09:06;;;;;;;0.80;0.80;;;16.80;99.90;;;;;;5049009;28;20201;-73
2022/09/11 00:11:35;;;;;;;0.68;0.60;;;16.80;99.90;;;;;;5043821;28;20231;-74
2022/09/11 00:14:03;;;;;;;0.77;0.77;;;16.70;99.90;;;;;;5046662;28;20234;-73
2022/09/11 00:16:32;;;;;;;1.60;0.70;;;16.70;99.90;;;;;;5044448;28;20235;-73
2022/09/11 00:19:01;;;;;;;0.70;0.70;;;16.70;99.90;;;;;;5044340;28;20204;-73
2022/09/11 00:21:30;;;;;;;0.70;0.70;;;16.60;99.90;;;;;;5043064;28;20224;-73
2022/09/11 00:23:57;;;;;;;0.70;0.70;;;16.60;99.90;;;;;;5046909;28;20235;-73
2022/09/11 00:26:25;;;;;;;0.80;0.80;;;16.50;99.90;;;;;;5041921;28;20230;-73
2022/09/11 00:28:52;;;;;;;0.70;0.70;;;16.50;99.90;;;;;;5041152;28;20196;-73
2022/09/11 00:31:23;;;;;;;0.77;0.77;;;16.50;99.90;;;;;;5049255;28;20215;-73
2022/09/11 00:33:50;;;;;;;0.93;0.93;;;16.50;99.90;;;;;;5045331;28;20232;-73
2022/09/11 00:36:20;;;;;;;0.82;0.82;;;16.50;99.90;;;;;;5047103;28;20288;-73
2022/09/11 00:38:49;;;;;;;0.70;0.70;;;16.50;99.90;;;;;;5046792;28;20556;-73
2022/09/11 00:41:18;;;;;;;2.33;0.90;;;16.50;99.90;;;;;;5041818;28;20246;-73
2022/09/11 00:43:58;;;;;;;0.80;0.80;;;16.40;99.90;;;;;;5047269;28;20243;-73
2022/09/11 00:46:33;;;;;;;0.70;0.70;;;16.30;99.90;;;;;;5047712;28;20226;-73
2022/09/11 00:49:02;;;;;;;1.30;0.70;;;16.30;99.90;;;;;;5046043;28;20188;-73
2022/09/11 00:51:33;;;;;;;0.80;0.80;;;16.40;99.90;;;;;;5044450;28;20798;-73
2022/09/11 00:54:04;;;;;;;0.73;0.73;;;16.30;99.90;;;;;;5048888;28;20271;-73
2022/09/11 00:56:34;;;;;;;0.90;0.90;;;16.30;99.90;;;;;;5044914;28;20215;-74
2022/09/11 00:59:02;;;;;;;0.80;0.80;;;16.30;99.90;;;;;;5049381;28;20198;-73
2022/09/11 01:01:29;;;;;;;0.77;0.77;;;16.20;99.90;;;;;;5043644;28;20226;-73
2022/09/11 01:03:57;;;;;;;0.95;0.95;;;16.20;99.90;;;;;;5048742;28;20227;-73
2022/09/11 01:06:26;;;;;;;0.70;0.70;;;16.20;99.90;;;;;;5046273;28;20238;-73
2022/09/11 01:08:53;;;;;;;0.60;0.60;;;16.20;99.90;;;;;;5046882;28;20257;-73
2022/09/11 01:11:39;;;;;;;0.80;0.80;;;16.30;99.90;;;;;;5051123;28;20219;-73
2022/09/11 01:14:14;;;;;;;0.70;0.70;;;16.30;99.90;;;;;;5044552;28;20199;-73
2022/09/11 01:16:48;;;;;;;0.75;0.75;;;16.30;99.90;;;;;;5049347;28;20230;-73
2022/09/11 01:19:29;;;;;;;0.70;0.70;;;16.30;99.90;;;;;;5048198;28;20230;-73
2022/09/11 01:22:21;;;;;;;0.85;0.85;;;16.40;99.90;;;;;;5049115;28;20195;-72
2022/09/11 01:25:07;;;;;;;1.00;0.90;;;16.40;99.90;;;;;;5045630;28;20275;-73
2022/09/11 01:27:46;;;;;;;0.70;0.70;;;16.30;99.90;;;;;;5046970;28;20272;-73
2022/09/11 01:30:17;;;;;;;0.70;0.70;;;16.30;99.90;;;;;;5049061;28;20219;-74
2022/09/11 01:33:08;;;;;;;1.00;1.00;;;16.30;99.90;;;;;;5047515;28;20223;-73
2022/09/11 01:35:51;;;;;;;0.70;0.55;;;16.30;99.90;;;;;;5053390;28;20225;-73
2022/09/11 01:38:25;;;;;;;1.20;0.90;;;16.30;99.90;;;;;;5047606;28;20255;-74
2022/09/11 01:40:56;;;;;;;0.70;0.70;;;16.30;99.90;;;;;;5050646;28;20215;-73
2022/09/11 01:43:29;;;;;;;0.70;0.70;;;16.30;99.90;;;;;;5049313;28;20220;-73
2022/09/11 01:45:58;;;;;;;0.93;0.80;;;16.30;99.90;;;;;;5049750;28;20222;-71
2022/09/11 01:48:30;;;;;;;0.80;0.80;;;16.10;99.90;;;;;;5045099;28;20208;-73
2022/09/11 01:51:00;;;;;;;0.82;0.82;;;16.10;99.90;;;;;;5043891;28;20227;-72
2022/09/11 01:53:32;;;;;;;1.65;1.05;;;16.10;99.90;;;;;;5047019;28;20279;-73
2022/09/11 01:56:05;;;;;;;0.90;0.90;;;16.10;99.90;;;;;;5045730;28;20756;-74
2022/09/11 01:58:35;;;;;;;0.70;0.70;;;16.20;99.90;;;;;;5044452;28;20195;-73
2022/09/11 02:01:07;;;;;;;0.90;0.90;;;16.20;99.90;;;;;;5043739;28;20243;-73
2022/09/11 02:03:37;;;;;;;0.90;0.90;;;16.20;99.90;;;;;;5048493;28;20219;-74
2022/09/11 02:06:08;;;;;;;0.85;0.85;;;16.20;99.90;;;;;;5045657;28;20224;-73
2022/09/11 02:08:44;;;;;;;1.58;0.77;;;16.20;99.90;;;;;;5044372;28;20198;-74
2022/09/11 02:11:13;;;;;;;0.60;0.60;;;16.10;99.90;;;;;;5043233;28;20220;-74
2022/09/11 02:13:49;;;;;;;0.70;0.70;;;16.00;99.90;;;;;;5044879;28;20233;-74
2022/09/11 02:16:21;;;;;;;0.88;0.88;;;15.90;99.90;;;;;;5038544;28;20220;-73
2022/09/11 02:18:59;;;;;;;0.70;0.70;;;15.90;99.90;;;;;;5040607;28;20192;-73
2022/09/11 02:21:26;;;;;;;0.70;0.70;;;15.90;99.90;;;;;;5045314;28;21827;-73
2022/09/11 02:23:54;;;;;;;0.73;0.70;;;16.00;99.90;;;;;;5052140;28;20219;-73
2022/09/11 02:26:24;;;;;;;0.70;0.70;;;16.00;99.90;;;;;;5045628;28;20211;-73
2022/09/11 02:28:53;;;;;;;0.70;0.70;;;16.00;99.90;;;;;;5044188;28;20195;-73
2022/09/11 02:31:22;;;;;;;0.85;0.85;;;16.00;99.90;;;;;;5041652;28;20212;-73
2022/09/11 02:33:50;;;;;;;0.70;0.70;;;16.00;99.90;;;;;;5044365;28;20287;-73
2022/09/11 02:36:55;;;;;;;0.80;0.80;;;16.00;99.90;;;;;;5039480;28;20233;-73
2022/09/11 02:39:35;;;;;;;0.60;0.60;;;16.00;99.90;;;;;;5001169;28;20205;-74
2022/09/11 02:42:25;;;;;;;0.90;0.60;;;16.00;99.90;;;;;;5037085;28;20238;-74
2022/09/11 02:45:00;;;;;;;0.70;0.70;;;16.00;99.90;;;;;;5041974;28;20271;-73
2022/09/11 02:47:41;;;;;;;0.82;0.82;;;15.90;99.90;;;;;;5042113;28;20199;-73
2022/09/11 02:50:20;;;;;;;0.80;0.80;;;15.90;99.90;;;;;;5042926;28;20227;-74
2022/09/11 02:52:55;;;;;;;1.17;0.82;;;15.90;99.90;;;;;;5043156;28;20214;-73
2022/09/11 02:55:31;;;;;;;0.70;0.70;;;15.80;99.90;;;;;;5046077;28;20210;-73
2022/09/11 02:58:03;;;;;;;0.70;0.70;;;15.80;99.90;;;;;;5040750;28;20196;-73
2022/09/11 03:00:32;;;;;;;0.60;0.60;;;15.80;99.90;;;;;;5042196;28;20319;-73
2022/09/11 03:02:59;;;;;;;0.70;0.70;;;15.80;99.90;;;;;;5048149;28;20224;-73
2022/09/11 03:05:28;;;;;;;1.55;0.93;;;15.80;99.90;;;;;;5044679;28;20212;-73
2022/09/11 03:07:55;;;;;;;0.80;0.80;;;15.80;99.90;;;;;;5044673;28;20198;-74
2022/09/11 03:10:22;;;;;;;0.70;0.70;;;15.80;99.90;;;;;;5043893;28;20215;-73
2022/09/11 03:12:49;;;;;;;0.90;0.90;;;15.80;99.90;;;;;;5048685;28;20222;-73
2022/09/11 03:15:17;;;;;;;0.60;0.60;;;15.80;99.90;;;;;;5043409;28;20219;-73
2022/09/11 03:17:45;;;;;;;0.88;0.88;;;15.70;99.90;;;;;;5042163;28;20209;-74
2022/09/11 03:20:12;;;;;;;0.65;0.65;;;15.70;99.90;;;;;;5047559;28;20219;-73
2022/09/11 03:22:40;;;;;;;1.55;0.70;;;15.70;99.90;;;;;;5042014;28;20227;-73
2022/09/11 03:25:07;;;;;;;0.70;0.70;;;15.70;99.90;;;;;;5041688;28;20467;-73
2022/09/11 03:27:36;;;;;;;0.80;0.80;;;15.70;99.90;;;;;;5043528;28;20215;-74
2022/09/11 03:30:03;;;;;;;0.77;0.77;;;15.60;99.90;;;;;;5041835;28;20238;-73
2022/09/11 03:32:31;;;;;;;0.80;0.77;;;15.60;99.90;;;;;;5045916;28;20230;-73
2022/09/11 03:35:00;;;;;;;0.80;0.80;;;15.50;99.90;;;;;;5045764;28;20214;-74
2022/09/11 03:37:27;;;;;;;0.90;0.90;;;15.50;99.90;;;;;;5046285;28;20223;-73
2022/09/11 03:39:54;;;;;;;0.80;0.80;;;15.50;99.90;;;;;;5040773;28;20583;-73
2022/09/11 03:42:21;;;;;;;0.70;0.70;;;15.50;99.90;;;;;;5044488;28;20220;-73
2022/09/11 03:44:48;;;;;;;0.70;0.70;;;15.40;99.90;;;;;;5038193;28;20215;-73
2022/09/11 03:47:15;;;;;;;0.80;0.80;;;15.40;99.90;;;;;;5042380;28;20196;-73
2022/09/11 03:49:42;;;;;;;2.42;1.10;;;15.40;99.90;;;;;;5042903;28;20230;-72
2022/09/11 03:52:11;;;;;;;1.05;0.70;;;15.40;99.90;;;;;;5037859;28;20215;-75
2022/09/11 03:54:38;;;;;;;0.98;0.98;;;15.40;99.90;;;;;;5042244;28;20241;-73
2022/09/11 03:57:06;;;;;;;1.50;0.70;;;15.40;99.90;;;;;;5041745;28;20204;-72
2022/09/11 03:59:33;;;;;;;0.77;0.77;;;15.40;99.90;;;;;;5038579;28;20250;-73
2022/09/11 04:02:00;;;;;;;1.27;0.80;;;15.40;99.90;;;;;;5045008;28;20215;-73
2022/09/11 04:04:27;;;;;;;0.80;0.80;;;15.40;99.90;;;;;;5038303;28;20234;-73
2022/09/11 04:06:55;;;;;;;0.88;0.88;;;15.40;99.90;;;;;;5039805;28;20229;-72
2022/09/11 04:09:24;;;;;;;0.75;0.75;;;15.50;99.90;;;;;;5039768;28;20211;-74
2022/09/11 04:11:51;;;;;;;0.77;0.77;;;15.40;99.90;;;;;;5038935;28;20216;-73
2022/09/11 04:14:18;;;;;;;0.80;0.80;;;15.40;99.90;;;;;;5043845;28;20259;-73
2022/09/11 04:16:46;;;;;;;0.82;0.82;;;15.40;99.90;;;;;;5043218;28;20219;-73
2022/09/11 04:19:13;;;;;;;0.73;0.73;;;15.30;99.90;;;;;;5039393;28;20203;-73
2022/09/11 04:21:41;;;;;;;0.90;0.90;;;15.30;99.90;;;;;;5045979;28;20200;-73
2022/09/11 04:24:10;;;;;;;0.77;0.77;;;15.30;99.90;;;;;;5042298;28;20196;-73
2022/09/11 04:26:38;;;;;;;0.85;0.85;;;15.20;99.90;;;;;;5046127;28;20195;-73
2022/09/11 04:29:05;;;;;;;0.90;0.90;;;15.20;99.90;;;;;;5041241;28;20188;-74
2022/09/11 04:31:35;;;;;;;0.75;0.75;;;15.20;99.90;;;;;;5051070;28;20230;-75
2022/09/11 04:34:02;;;;;;;0.88;0.88;;;15.20;99.90;;;;;;5046339;28;21039;-73
2022/09/11 04:36:29;;;;;;;0.70;0.70;;;15.20;99.90;;;;;;5046243;28;20219;-73
2022/09/11 04:38:58;;;;;;;0.60;0.60;;;15.20;99.90;;;;;;5044415;28;20203;-73
2022/09/11 04:41:26;;;;;;;0.60;0.60;;;15.20;99.90;;;;;;5046480;28;20227;-73
2022/09/11 04:43:56;;;;;;;0.80;0.80;;;15.20;99.90;;;;;;5043856;28;20223;-73
2022/09/11 04:46:24;;;;;;;0.80;0.80;;;15.20;99.90;;;;;;5046130;28;20208;-73
2022/09/11 04:48:52;;;;;;;0.80;0.80;;;15.10;99.90;;;;;;5047973;28;20204;-73
2022/09/11 04:51:22;;;;;;;0.85;0.85;;;15.20;99.90;;;;;;5045784;28;20215;-73
2022/09/11 04:53:50;;;;;;;2.47;0.95;;;15.40;99.90;;;;;;5043723;28;20223;-73
2022/09/11 04:56:19;;;;;;;0.93;0.93;;;15.60;99.90;;;;;;5043905;28;20451;-73
2022/09/11 04:58:47;;;;;;;1.02;0.82;;;15.70;99.90;;;;;;5044566;28;20208;-73
2022/09/11 05:01:16;;;;;;;0.80;0.80;;;15.70;99.90;;;;;;5043798;28;20234;-73
2022/09/11 05:03:43;;;;;;;0.77;0.77;;;15.70;99.90;;;;;;5042864;28;20234;-73
2022/09/11 05:06:15;;;;;;;0.80;0.80;;;15.70;99.90;;;;;;5044330;28;20232;-73
2022/09/11 05:08:43;;;;;;;0.70;0.70;;;15.70;99.90;;;;;;5046790;28;20200;-73
2022/09/11 05:11:13;;;;;;;2.13;0.80;;;15.70;99.90;;;;;;5041567;28;20253;-73
2022/09/11 05:13:40;;;;;;;0.95;0.90;;;15.70;99.90;;;;;;5044966;28;20551;-73
2022/09/11 05:16:09;;;;;;;1.15;0.80;;;15.60;99.90;;;;;;5041380;28;20255;-73
2022/09/11 05:18:38;;;;;;;0.95;0.95;;;15.60;99.90;;;;;;5043186;28;20211;-73
2022/09/11 05:21:07;;;;;;;0.75;0.75;;;15.60;99.90;;;;;;5042056;28;20214;-73
2022/09/11 05:23:34;;;;;;;0.70;0.70;;;15.60;99.90;;;;;;5043689;28;20215;-73
2022/09/11 05:26:04;;;;;;;0.95;0.90;;;15.70;99.90;;;;;;5045837;28;20215;-73
2022/09/11 05:28:31;;;;;;;0.88;0.80;;;16.00;99.90;;;;;;5042491;28;20265;-73
2022/09/11 05:30:59;;;;;;;0.70;0.70;;;16.40;99.90;;;;;;5040156;28;20219;-73
2022/09/11 05:33:27;;;;;;;0.90;0.90;;;16.70;99.90;;;;;;5040239;28;20254;-73
2022/09/11 05:36:04;;;;;;;0.90;0.90;;;17.10;99.90;;;;;;5042712;28;20686;-73
2022/09/11 05:38:32;;;;;;;1.15;0.73;;;17.20;99.90;;;;;;5041206;28;20198;-73
2022/09/11 05:40:59;;;;;;;0.90;0.90;;;17.30;99.90;;;;;;5044510;28;20230;-73
2022/09/11 05:43:26;;;;;;;0.80;0.80;;;17.40;99.90;;;;;;5046772;28;20230;-73
2022/09/11 05:45:57;;;;;;;0.80;0.80;;;17.60;99.90;;;;;;5044457;28;20207;-73
2022/09/11 05:48:25;;;;;;;1.40;1.00;;;17.80;99.90;;;;;;5046737;28;20263;-73
2022/09/11 05:50:53;;;;;;;1.58;0.80;;;17.90;99.90;;;;;;5039250;28;20702;-74
2022/09/11 05:53:21;;;;;;;2.40;0.90;;;18.00;99.90;;;;;;5028550;28;20290;-73
2022/09/11 05:55:50;;;;;;;0.88;0.88;;;18.20;99.90;;;;;;5033642;28;20222;-72
2022/09/11 05:58:18;;;;;;;0.63;0.63;;;18.30;99.90;;;;;;5030577;28;20213;-73
2022/09/11 06:00:45;;;;;;;0.70;0.70;;;18.50;99.90;;;;;;5028220;28;20246;-73
2022/09/11 06:03:13;;;;;;;1.65;0.70;;;18.70;99.90;;;;;;5030988;28;20486;-73
2022/09/11 06:05:40;;;;;;;0.77;0.77;;;18.90;99.90;;;;;;5034656;28;20893;-74
2022/09/11 06:08:07;;;;;;;0.80;0.80;;;19.00;99.90;;;;;;5032415;28;20204;-72
2022/09/11 06:10:36;;;;;;;1.50;0.60;;;19.00;99.90;;;;;;5033126;28;20219;-72
2022/09/11 06:13:04;;;;;;;0.70;0.70;;;19.10;99.90;;;;;;5033802;28;20223;-73
2022/09/11 06:15:31;;;;;;;0.80;0.80;;;19.30;99.90;;;;;;5033661;28;20285;-73
2022/09/11 06:17:58;;;;;;;0.73;0.73;;;19.40;99.90;;;;;;5024067;28;20799;-72
2022/09/11 06:20:25;;;;;;;1.15;1.00;;;19.60;99.90;;;;;;5032378;28;20985;-73
2022/09/11 06:22:53;;;;;;;0.70;0.70;;;19.70;99.90;;;;;;5029627;28;20216;-73
2022/09/11 06:25:20;;;;;;;3.20;0.95;;;20.00;99.90;;;;;;5029295;28;20239;-72
2022/09/11 06:27:49;;;;;;;0.82;0.82;;;20.10;99.90;;;;;;5031672;28;20192;-73
2022/09/11 06:30:16;;;;;;;0.90;0.90;;;20.20;99.90;;;;;;5029964;28;20303;-73
2022/09/11 06:32:43;;;;;;;0.70;0.70;;;20.20;99.90;;;;;;5035466;28;20600;-74
2022/09/11 06:35:11;;;;;;;1.02;0.93;;;20.20;99.90;;;;;;5035192;28;20228;-73
2022/09/11 06:37:38;;;;;;;0.80;0.80;;;20.00;99.90;;;;;;5035489;28;20223;-74
2022/09/11 06:40:06;;;;;;;1.77;0.80;;;19.70;99.90;;;;;;5030480;28;20293;-73
2022/09/11 06:42:35;;;;;;;1.05;1.02;;;19.70;99.90;;;;;;5032552;28;20230;-73
2022/09/11 06:45:04;;;;;;;1.60;1.13;;;19.70;99.90;;;;;;5033516;28;20273;-73
2022/09/11 06:47:31;;;;;;;1.77;1.02;;;19.70;99.90;;;;;;5034922;28;20200;-73
2022/09/11 06:49:58;;;;;;;0.70;0.70;;;19.90;99.90;;;;;;5032445;28;20219;-73
2022/09/11 06:52:26;;;;;;;0.95;0.93;;;20.30;99.90;;;;;;5031205;28;20223;-73
2022/09/11 06:54:54;;;;;;;0.93;0.80;;;20.50;99.90;;;;;;5031872;28;20220;-73
2022/09/11 06:57:21;;;;;;;2.47;0.77;;;20.60;99.90;;;;;;5035464;28;20527;-72
2022/09/11 06:59:48;;;;;;;0.70;0.70;;;20.50;99.90;;;;;;5037228;28;20220;-73
2022/09/11 07:02:16;;;;;;;1.00;0.82;;;20.20;99.90;;;;;;5031185;28;20215;-71
2022/09/11 07:04:43;;;;;;;2.58;1.00;;;19.90;99.90;;;;;;5031694;28;20223;-70
2022/09/11 07:07:10;;;;;;;1.85;0.80;;;19.70;99.90;;;;;;5026963;28;20204;-73
2022/09/11 07:09:37;;;;;;;2.35;1.17;;;20.00;99.90;;;;;;5035367;28;20230;-73
2022/09/11 07:12:05;;;;;;;0.80;0.80;;;20.40;99.90;;;;;;5031622;28;20212;-73
2022/09/11 07:14:32;;;;;;;1.15;0.80;;;20.70;99.90;;;;;;5032772;28;20270;-73
2022/09/11 07:17:00;;;;;;;0.77;0.77;;;20.90;99.90;;;;;;5032944;28;20291;-73
2022/09/11 07:19:28;;;;;;;1.55;0.95;;;21.10;99.90;;;;;;5035744;28;20658;-73
2022/09/11 07:21:55;;;;;;;0.90;0.90;;;21.30;99.90;;;;;;5037261;28;20203;-72
2022/09/11 07:24:22;;;;;;;2.15;0.95;;;21.10;99.90;;;;;;5034408;28;20257;-73
2022/09/11 07:26:49;;;;;;;1.02;0.80;;;21.10;99.90;;;;;;5031376;28;20214;-74
2022/09/11 07:29:16;;;;;;;1.15;0.77;;;21.10;99.90;;;;;;5034255;28;20195;-74
2022/09/11 07:31:44;;;;;;;1.40;1.00;;;21.20;99.90;;;;;;5033189;28;20207;-73
2022/09/11 07:34:11;;;;;;;0.82;0.63;;;21.20;99.90;;;;;;5028718;28;20242;-73
2022/09/11 07:36:40;;;;;;;2.05;0.80;;;21.30;99.90;;;;;;5033831;28;20238;-73
2022/09/11 07:39:07;;;;;;;0.75;0.68;;;21.20;99.90;;;;;;5032993;28;20219;-71
2022/09/11 07:41:34;;;;;;;1.08;0.68;;;21.20;99.90;;;;;;5035559;28;20219;-73
2022/09/11 07:44:02;;;;;;;1.50;0.63;;;21.20;99.90;;;;;;5032427;28;20235;-73
2022/09/11 07:46:30;;;;;;;1.35;0.80;;;21.50;99.90;;;;;;5032044;28;20242;-73
2022/09/11 07:48:57;;;;;;;0.65;0.65;;;21.70;99.90;;;;;;5029514;28;20195;-72
2022/09/11 07:51:25;;;;;;;0.60;0.60;;;22.00;99.90;;;;;;5031003;28;20216;-74
2022/09/11 07:53:56;;;;;;;0.60;0.60;;;22.20;99.90;;;;;;5033222;28;20249;-73
2022/09/11 07:56:25;;;;;;;0.73;0.73;;;22.00;99.90;;;;;;5032948;28;20767;-74
2022/09/11 07:58:54;;;;;;;0.63;0.63;;;22.00;99.90;;;;;;5031810;28;20282;-74
2022/09/11 08:01:23;;;;;;;0.60;0.60;;;22.00;99.90;;;;;;5032863;28;20239;-73
2022/09/11 08:03:55;;;;;;;0.85;0.80;;;22.00;99.90;;;;;;5034536;28;20222;-73
2022/09/11 08:06:23;;;;;;;0.70;0.70;;;21.80;99.90;;;;;;5032872;28;20595;-73
2022/09/11 08:08:54;;;;;;;0.60;0.60;;;21.80;99.90;;;;;;5037540;28;20229;-73
2022/09/11 08:11:21;;;;;;;0.70;0.70;;;21.70;99.90;;;;;;5034556;28;20235;-73
2022/09/11 08:13:50;;;;;;;0.70;0.70;;;21.60;99.90;;;;;;5036085;28;20223;-73
2022/09/11 08:16:18;;;;;;;1.65;0.70;;;21.50;99.90;;;;;;5037699;28;20277;-74
2022/09/11 08:18:45;;;;;;;0.60;0.60;;;21.70;99.90;;;;;;5036680;28;20206;-74
2022/09/11 08:21:12;;;;;;;1.65;0.77;;;22.10;99.90;;;;;;5039716;28;20215;-73
2022/09/11 08:23:41;;;;;;;1.85;0.70;;;22.40;99.90;;;;;;5039245;28;20227;-74
2022/09/11 08:26:12;;;;;;;0.60;0.60;;;22.50;99.90;;;;;;5036612;28;20230;-74
2022/09/11 08:28:41;;;;;;;0.85;0.85;;;22.80;99.90;;;;;;5030691;28;20515;-74
2022/09/11 08:31:09;;;;;;;1.55;0.70;;;23.00;99.90;;;;;;5027432;28;20257;-75
2022/09/11 08:33:37;;;;;;;1.45;0.50;;;22.90;99.90;;;;;;5027074;28;20290;-74
2022/09/11 08:36:07;;;;;;;0.80;0.80;;;22.70;99.90;;;;;;5029737;28;20250;-74
2022/09/11 08:38:34;;;;;;;0.60;0.60;;;22.50;99.90;;;;;;5033348;28;20242;-73
2022/09/11 08:41:12;;;;;;;0.70;0.70;;;22.60;99.90;;;;;;5036397;28;20265;-73
2022/09/11 08:43:49;;;;;;;1.58;0.65;;;22.80;99.90;;;;;;5034004;28;20634;-74
2022/09/11 08:46:18;;;;;;;1.50;0.57;;;22.90;99.90;;;;;;5033119;28;20214;-74
2022/09/11 08:48:51;;;;;;;1.13;0.70;;;23.00;99.90;;;;;;5030054;28;20198;-74
2022/09/11 08:51:19;;;;;;;0.77;0.60;;;23.20;99.90;;;;;;5035373;28;20216;-74
2022/09/11 08:53:46;;;;;;;0.52;0.52;;;23.40;99.90;;;;;;5033810;28;20215;-73
2022/09/11 08:56:18;;;;;;;0.50;0.50;;;23.80;99.90;;;;;;5032933;28;20226;-73
2022/09/11 08:59:02;;;;;;;1.48;0.80;;;24.00;99.90;;;;;;5032272;28;20222;-74
2022/09/11 09:01:36;;;;;;;0.70;0.60;;;24.00;99.90;;;;;;5031799;28;20227;-74
2022/09/11 09:04:26;;;;;;;1.17;0.60;;;23.80;99.90;;;;;;5030219;28;20222;-74
2022/09/11 09:07:00;;;;;;;1.17;0.70;;;23.80;99.90;;;;;;5033908;28;20238;-74
2022/09/11 09:09:36;;;;;;;0.57;0.57;;;24.00;99.90;;;;;;5031496;28;20253;-74
2022/09/11 09:12:14;;;;;;;0.40;0.40;;;24.10;99.90;;;;;;5031567;28;20639;-73
2022/09/11 09:15:05;;;;;;;1.05;0.60;;;24.00;99.90;;;;;;5032387;28;20662;-73
2022/09/11 09:17:39;;;;;;;1.70;0.60;;;24.20;99.90;;;;;;5032422;28;20222;-74
2022/09/11 09:20:12;;;;;;;0.50;0.50;;;24.10;99.90;;;;;;5030559;28;20220;-74
2022/09/11 09:22:44;;;;;;;0.68;0.60;;;23.90;99.90;;;;;;5034020;28;20223;-74
2022/09/11 09:25:13;;;;;;;0.75;0.50;;;23.80;99.90;;;;;;5031713;28;20224;-75
2022/09/11 09:27:45;;;;;;;0.70;0.70;;;23.80;99.90;;;;;;5031053;28;20718;-73
2022/09/11 09:30:15;;;;;;;0.73;0.65;;;23.60;99.90;;;;;;5036102;28;20223;-71
2022/09/11 09:32:47;;;;;;;0.88;0.50;;;23.60;99.90;;;;;;5037692;28;20227;-73
2022/09/11 09:35:19;;;;;;;1.27;0.70;;;23.60;99.90;;;;;;5034090;28;20231;-73
2022/09/11 09:37:47;;;;;;;1.55;0.65;;;23.80;99.90;;;;;;5029448;28;20724;-73
2022/09/11 09:40:17;;;;;;;0.65;0.60;;;23.60;99.90;;;;;;5040801;28;20216;-74
2022/09/11 09:42:59;;;;;;;1.17;0.50;;;23.50;99.90;;;;;;5032314;28;20649;-76
2022/09/11 09:45:37;;;;;;;0.50;0.50;;;23.50;99.90;;;;;;5029507;28;20216;-74
2022/09/11 09:48:05;;;;;;;0.52;0.52;;;23.80;99.90;;;;;;5021556;28;20656;-74
2022/09/11 09:50:36;;;;;;;0.60;0.60;;;23.80;99.90;;;;;;5026093;28;20302;-74
2022/09/11 09:53:11;;;;;;;0.50;0.50;;;23.80;99.90;;;;;;5023604;28;20214;-76
2022/09/11 09:55:40;;;;;;;0.60;0.60;;;23.80;99.90;;;;;;5023908;28;20238;-75
2022/09/11 09:58:08;;;;;;;0.95;0.85;;;23.90;99.90;;;;;;5008657;28;20585;-73
2022/09/11 10:00:37;;;;;;;0.50;0.50;;;24.10;99.90;;;;;;5023690;28;20223;-73
2022/09/11 10:03:18;;;;;;;0.50;0.50;;;24.20;99.90;;;;;;5026706;28;20227;-73
2022/09/11 10:05:47;;;;;;;2.70;0.73;;;24.50;99.90;;;;;;5031661;28;20241;-73
2022/09/11 10:08:30;;;;;;;0.43;0.43;;;24.70;99.90;;;;;;5032650;28;20191;-74
2022/09/11 10:10:59;;;;;;;0.77;0.55;;;24.90;99.90;;;;;;5033705;28;20212;-73
2022/09/11 10:13:30;;;;;;;0.40;0.40;;;24.90;99.90;;;;;;5030309;28;20220;-73
2022/09/11 10:16:00;;;;;;;0.47;0.43;;;24.90;99.90;;;;;;5038189;28;20226;-74
2022/09/11 10:18:41;;;;;;;1.30;0.60;;;25.10;99.90;;;;;;5036216;28;20290;-73
2022/09/11 10:21:32;;;;;;;0.47;0.40;;;25.00;99.90;;;;;;5034766;28;20212;-73
2022/09/11 10:24:01;;;;;;;0.50;0.50;;;24.80;99.90;;;;;;5033454;28;20273;-73
2022/09/11 10:26:32;;;;;;;1.00;0.43;;;24.80;99.90;;;;;;5031984;28;20748;-73
2022/09/11 10:29:07;;;;;;;0.40;0.40;;;24.80;99.90;;;;;;5033981;28;20234;-73
2022/09/11 10:31:38;;;;;;;1.20;0.60;;;25.00;99.90;;;;;;5035709;28;20218;-73
2022/09/11 10:34:06;;;;;;;0.50;0.50;;;24.90;99.90;;;;;;5036110;28;20231;-73
2022/09/11 10:36:34;;;;;;;0.50;0.50;;;24.80;99.90;;;;;;5038163;28;20604;-73
2022/09/11 10:39:02;;;;;;;0.50;0.50;;;25.00;99.90;;;;;;5034102;28;20228;-73
2022/09/11 10:41:33;;;;;;;0.57;0.57;;;25.30;99.90;;;;;;5035902;28;20229;-73
2022/09/11 10:44:03;;;;;;;1.58;0.60;;;25.70;99.90;;;;;;5034040;28;20229;-73
2022/09/11 10:46:33;;;;;;;0.68;0.50;;;25.70;99.90;;;;;;5035564;28;20231;-74
2022/09/11 10:49:09;;;;;;;0.82;0.50;;;25.90;99.90;;;;;;5033816;28;20589;-73
2022/09/11 10:51:38;;;;;;;1.38;0.60;;;25.60;99.90;;;;;;5033030;28;20223;-73
2022/09/11 10:54:22;;;;;;;0.60;0.60;;;25.50;99.90;;;;;;5032562;28;20215;-73
2022/09/11 10:57:04;;;;;;;0.55;0.55;;;25.70;99.90;;;;;;5030363;28;20247;-74
2022/09/11 10:59:41;;;;;;;0.60;0.60;;;25.80;99.90;;;;;;5029808;28;20226;-72
2022/09/11 11:02:27;;;;;;;0.40;0.40;;;25.70;99.90;;;;;;5032423;28;20967;-72
2022/09/11 11:04:56;;;;;;;0.85;0.50;;;25.50;99.90;;;;;;5036200;28;20649;-73
2022/09/11 11:08:03;;;;;;;0.43;0.43;;;25.50;99.90;;;;;;5030163;28;20249;-73
2022/09/11 11:10:41;;;;;;;0.40;0.40;;;25.70;99.90;;;;;;5036061;28;20241;-73
2022/09/11 11:13:23;;;;;;;0.60;0.60;;;25.60;99.90;;;;;;5034550;28;20532;-72
2022/09/11 11:16:04;;;;;;;0.50;0.50;;;25.50;99.90;;;;;;5033324;28;20223;-73
2022/09/11 11:18:51;;;;;;;0.40;0.40;;;25.40;99.90;;;;;;5028689;28;20242;-70
2022/09/11 11:21:31;;;;;;;1.50;0.50;;;25.70;99.90;;;;;;5030481;28;20216;-73
2022/09/11 11:24:22;;;;;;;1.45;0.40;;;25.60;99.90;;;;;;5037503;28;20216;-72
2022/09/11 11:27:02;;;;;;;0.30;0.30;;;25.50;99.90;;;;;;5030806;28;20224;-73
2022/09/11 11:29:59;;;;;;;1.40;0.57;;;25.60;99.90;;;;;;5033034;28;20257;-76
2022/09/11 11:32:53;;;;;;;0.40;0.40;;;25.80;99.90;;;;;;5030391;28;20323;-73
2022/09/11 11:35:25;;;;;;;0.43;0.43;;;25.90;99.90;;;;;;5031994;28;20215;-72
2022/09/11 11:38:00;;;;;;;0.30;0.30;;;25.80;99.90;;;;;;5032417;28;20242;-73
2022/09/11 11:40:30;;;;;;;1.33;0.40;;;26.00;99.90;;;;;;5035878;28;20277;-73
2022/09/11 11:43:04;;;;;;;0.50;0.50;;;26.10;99.90;;;;;;5039151;28;20219;-73
2022/09/11 11:45:36;;;;;;;0.65;0.50;;;26.20;99.90;;;;;;5037216;28;20219;-72
2022/09/11 11:48:13;;;;;;;0.40;0.40;;;26.50;99.90;;;;;;5039184;28;20204;-72
2022/09/11 11:50:43;;;;;;;0.40;0.40;;;26.70;99.90;;;;;;5041485;28;20250;-73
2022/09/11 11:53:18;;;;;;;1.60;0.38;;;26.50;99.90;;;;;;5040007;28;20223;-73
2022/09/11 11:56:02;;;;;;;0.73;0.43;;;26.20;99.90;;;;;;5038244;28;20234;-73
2022/09/11 11:58:47;;;;;;;0.45;0.45;;;26.20;99.90;;;;;;5041061;28;20273;-72
2022/09/11 12:01:21;;;;;;;0.40;0.40;;;26.20;99.90;;;;;;5035808;28;20215;-73
2022/09/11 12:03:53;;;;;;;0.50;0.50;;;26.40;99.90;;;;;;5040130;28;20215;-73
2022/09/11 12:06:20;;;;;;;0.30;0.30;;;26.70;99.90;;;;;;5039294;28;20269;-72
2022/09/11 12:08:48;;;;;;;0.50;0.40;;;26.70;99.90;;;;;;5033392;28;20222;-73
2022/09/11 12:11:22;;;;;;;0.30;0.30;;;26.80;99.90;;;;;;5038423;28;20252;-74
2022/09/11 12:13:49;;;;;;;0.40;0.40;;;26.60;99.90;;;;;;5039791;28;20238;-73
2022/09/11 12:16:20;;;;;;;0.55;0.55;;;26.80;99.90;;;;;;5038602;28;20219;-72
2022/09/11 12:19:14;;;;;;;0.50;0.50;;;26.70;99.90;;;;;;5039803;28;20215;-73
2022/09/11 12:22:03;;;;;;;0.40;0.40;;;26.70;99.90;;;;;;5037050;28;20249;-73
2022/09/11 12:24:57;;;;;;;0.55;0.40;;;26.80;99.90;;;;;;5044075;28;20223;-73
2022/09/11 12:27:52;;;;;;;0.40;0.40;;;26.80;99.90;;;;;;5039484;28;20199;-73
2022/09/11 12:30:26;;;;;;;0.50;0.50;;;27.10;99.90;;;;;;5034952;28;20276;-72
2022/09/11 12:32:54;;;;;;;0.30;0.30;;;27.30;99.90;;;;;;5038771;28;20265;-72
2022/09/11 12:35:31;;;;;;;0.88;0.50;;;27.40;99.90;;;;;;5034052;28;20280;-74
2022/09/11 12:38:03;;;;;;;0.45;0.45;;;27.40;99.90;;;;;;5038154;28;20798;-73
2022/09/11 12:40:36;;;;;;;0.30;0.30;;;27.40;99.90;;;;;;5033807;28;20219;-74
2022/09/11 12:43:28;;;;;;;0.75;0.30;;;27.40;99.90;;;;;;5038481;28;20215;-74
2022/09/11 12:45:55;;;;;;;0.40;0.40;;;27.40;99.90;;;;;;5036237;28;20582;-71
2022/09/11 12:48:32;;;;;;;0.65;0.50;;;27.20;99.90;;;;;;5036451;28;20196;-72
2022/09/11 12:51:02;;;;;;;0.40;0.40;;;27.30;99.90;;;;;;5035902;28;20253;-73
2022/09/11 12:53:32;;;;;;;0.50;0.50;;;27.40;99.90;;;;;;5035847;28;20226;-73
2022/09/11 12:56:03;;;;;;;0.30;0.30;;;27.30;99.90;;;;;;5038335;28;20666;-72
2022/09/11 12:58:37;;;;;;;1.25;0.52;;;27.20;99.90;;;;;;5034981;28;20223;-73
2022/09/11 13:01:17;;;;;;;0.60;0.50;;;27.20;99.90;;;;;;5033942;28;20728;-73
2022/09/11 13:04:03;;;;;;;0.40;0.40;;;27.40;99.90;;;;;;5036610;28;20223;-72
2022/09/11 13:06:42;;;;;;;0.38;0.38;;;27.30;99.90;;;;;;5032724;28;20215;-72
2022/09/11 13:09:26;;;;;;;0.40;0.40;;;27.30;99.90;;;;;;5033759;28;20200;-73
2022/09/11 13:11:55;;;;;;;0.73;0.45;;;27.30;99.90;;;;;;5035702;28;20195;-72